createdAt,value
2023-03-29T00:02:05.283Z,4.45
2023-03-29T00:04:32.091Z,3.97
2023-03-29T00:07:03.981Z,5.88
2023-03-29T00:09:33.085Z,4.38
2023-03-29T00:12:01.205Z,4.32
2023-03-29T00:14:30.508Z,3.78
2023-03-29T00:16:58.244Z,3.40
2023-03-29T00:19:25.216Z,4.00
2023-03-29T00:21:51.971Z,3.88
2023-03-29T00:24:18.836Z,3.10
2023-03-29T00:26:45.634Z,3.20
2023-03-29T00:29:12.338Z,3.13
2023-03-29T00:31:39.095Z,3.47
2023-03-29T00:34:06.148Z,3.30
2023-03-29T00:36:32.910Z,2.97
2023-03-29T00:38:59.579Z,6.05
2023-03-29T00:41:26.375Z,2.72
2023-03-29T00:43:59.631Z,3.92
2023-03-29T00:46:27.726Z,4.13
2023-03-29T00:48:58.591Z,3.72
2023-03-29T00:51:27.952Z,3.80
2023-03-29T00:53:59.048Z,3.92
2023-03-29T00:56:34.789Z,3.33
2023-03-29T00:59:18.696Z,4.22
2023-03-29T01:01:48.130Z,2.93
2023-03-29T01:04:22.649Z,3.15
2023-03-29T01:09:27.079Z,3.03
2023-03-29T01:12:01.763Z,3.63
2023-03-29T01:14:58.047Z,4.20
2023-03-29T01:17:25.620Z,3.42
2023-03-29T01:19:59.012Z,3.70
2023-03-29T01:22:58.118Z,4.50
2023-03-29T01:25:36.851Z,3.67
2023-03-29T01:28:11.583Z,3.20
2023-03-29T01:30:51.990Z,3.72
2023-03-29T01:33:25.422Z,4.93
2023-03-29T01:36:12.161Z,7.03
2023-03-29T01:39:00.786Z,5.18
2023-03-29T01:41:50.449Z,4.55
2023-03-29T01:44:31.300Z,3.55
2023-03-29T01:47:14.226Z,3.97
2023-03-29T01:50:07.043Z,4.18
2023-03-29T01:52:42.825Z,5.28
2023-03-29T01:55:25.822Z,5.47
2023-03-29T01:57:54.786Z,4.00
2023-03-29T02:00:24.973Z,3.80
2023-03-29T02:02:54.785Z,4.35
2023-03-29T02:05:24.409Z,9.60
2023-03-29T02:07:52.982Z,4.22
2023-03-29T02:10:21.654Z,3.03
2023-03-29T02:12:49.033Z,8.05
2023-03-29T02:15:19.212Z,3.00
2023-03-29T02:17:49.378Z,2.97
2023-03-29T02:20:19.164Z,4.15
2023-03-29T02:22:58.550Z,4.75
2023-03-29T02:25:25.998Z,3.80
2023-03-29T02:27:53.303Z,3.00
2023-03-29T02:30:21.428Z,3.97
2023-03-29T02:32:59.543Z,3.72
2023-03-29T02:35:35.115Z,3.85
2023-03-29T02:38:06.838Z,3.53
2023-03-29T02:40:34.805Z,3.88
2023-03-29T02:43:07.729Z,4.25
2023-03-29T02:45:37.433Z,4.38
2023-03-29T02:48:09.039Z,3.55
2023-03-29T02:50:38.284Z,3.30
2023-03-29T02:53:15.314Z,3.15
2023-03-29T02:55:42.008Z,3.28
2023-03-29T02:58:08.782Z,4.78
2023-03-29T03:00:38.333Z,4.47
2023-03-29T03:03:08.784Z,4.95
2023-03-29T03:05:36.174Z,3.30
2023-03-29T03:08:04.522Z,3.42
2023-03-29T03:10:33.205Z,2.55
2023-03-29T03:12:59.980Z,3.88
2023-03-29T03:15:27.350Z,2.30
2023-03-29T03:17:54.998Z,4.30
2023-03-29T03:20:24.509Z,2.40
2023-03-29T03:22:51.376Z,3.28
2023-03-29T03:25:21.042Z,2.45
2023-03-29T03:27:49.256Z,4.32
2023-03-29T03:30:16.894Z,4.10
2023-03-29T03:32:44.708Z,4.85
2023-03-29T03:35:11.790Z,2.80
2023-03-29T03:37:39.512Z,3.40
2023-03-29T03:40:12.076Z,2.45
2023-03-29T03:42:42.273Z,3.17
2023-03-29T03:45:10.609Z,2.78
2023-03-29T03:47:38.139Z,6.57
2023-03-29T03:50:06.034Z,4.47
2023-03-29T03:52:32.838Z,6.07
2023-03-29T03:54:59.557Z,2.85
2023-03-29T03:57:26.505Z,5.45
2023-03-29T03:59:53.304Z,3.28
2023-03-29T04:02:20.688Z,6.10
2023-03-29T04:04:47.653Z,2.90
2023-03-29T04:07:14.681Z,6.15
2023-03-29T04:09:41.401Z,2.15
2023-03-29T04:12:10.279Z,3.15
2023-03-29T04:14:36.994Z,5.15
2023-03-29T04:17:03.757Z,3.17
2023-03-29T04:19:30.521Z,4.35
2023-03-29T04:21:57.209Z,2.17
2023-03-29T04:24:24.563Z,2.60
2023-03-29T04:26:51.277Z,2.38
2023-03-29T04:29:18.043Z,4.03
2023-03-29T04:31:44.756Z,2.65
2023-03-29T04:34:11.462Z,2.85
2023-03-29T04:36:38.835Z,3.28
2023-03-29T04:39:07.753Z,4.28
2023-03-29T04:41:35.038Z,3.90
2023-03-29T04:44:02.631Z,1.92
2023-03-29T04:46:29.902Z,3.85
2023-03-29T04:48:57.383Z,3.95
2023-03-29T04:51:24.474Z,1.75
2023-03-29T04:53:51.811Z,2.60
2023-03-29T04:56:18.545Z,1.73
2023-03-29T04:58:45.458Z,1.77
2023-03-29T05:01:12.233Z,2.42
2023-03-29T05:03:39.410Z,4.43
2023-03-29T05:06:07.880Z,4.93
2023-03-29T05:08:38.920Z,1.67
2023-03-29T05:11:10.358Z,4.25
2023-03-29T05:13:37.841Z,2.88
2023-03-29T05:16:06.906Z,2.05
2023-03-29T05:18:33.729Z,2.63
2023-03-29T05:21:00.776Z,2.92
2023-03-29T05:23:28.932Z,2.85
2023-03-29T05:25:55.675Z,2.35
2023-03-29T05:28:22.928Z,4.00
2023-03-29T05:31:01.099Z,3.53
2023-03-29T05:33:28.719Z,2.90
2023-03-29T05:36:09.792Z,3.90
2023-03-29T05:38:36.962Z,2.80
2023-03-29T05:41:03.818Z,2.60
2023-03-29T05:43:30.908Z,2.97
2023-03-29T05:46:01.160Z,2.50
2023-03-29T05:48:28.669Z,2.90
2023-03-29T05:50:56.416Z,2.40
2023-03-29T05:53:25.255Z,2.63
2023-03-29T05:55:52.264Z,2.72
2023-03-29T05:58:20.593Z,2.80
2023-03-29T06:00:49.638Z,3.03
2023-03-29T06:03:21.983Z,4.50
2023-03-29T06:05:56.287Z,2.58
2023-03-29T06:08:23.495Z,2.17
2023-03-29T06:10:50.192Z,3.67
2023-03-29T06:13:17.391Z,2.05
2023-03-29T06:15:45.118Z,2.55
2023-03-29T06:18:11.964Z,2.60
2023-03-29T06:20:38.686Z,3.60
2023-03-29T06:23:05.441Z,4.53
2023-03-29T06:25:32.113Z,12.50
2023-03-29T06:27:58.816Z,7.18
2023-03-29T06:30:25.823Z,14.13
2023-03-29T06:32:52.573Z,12.32
2023-03-29T06:35:19.416Z,9.52
2023-03-29T06:37:50.030Z,3.30
2023-03-29T06:40:24.691Z,8.40
2023-03-29T06:42:57.698Z,13.70
2023-03-29T06:45:29.520Z,5.70
2023-03-29T06:47:56.588Z,8.80
2023-03-29T06:50:24.173Z,4.47
2023-03-29T06:52:51.154Z,8.10
2023-03-29T06:55:18.591Z,3.75
2023-03-29T06:57:45.532Z,3.60
2023-03-29T07:00:19.324Z,3.50
2023-03-29T07:02:46.613Z,4.35
2023-03-29T07:05:14.643Z,4.20
2023-03-29T07:08:02.407Z,2.70
2023-03-29T07:10:34.333Z,2.58
2023-03-29T07:13:01.410Z,4.13
2023-03-29T07:15:29.392Z,5.85
2023-03-29T07:17:57.471Z,8.40
2023-03-29T07:20:25.025Z,3.70
2023-03-29T07:22:51.847Z,6.55
2023-03-29T07:25:20.304Z,5.65
2023-03-29T07:27:48.211Z,3.28
2023-03-29T07:30:17.853Z,1.98
2023-03-29T07:32:46.480Z,3.78
2023-03-29T07:35:15.159Z,2.65
2023-03-29T07:37:44.380Z,4.00
2023-03-29T07:40:16.340Z,4.20
2023-03-29T07:42:47.223Z,2.03
2023-03-29T07:45:16.845Z,5.90
2023-03-29T07:47:44.792Z,3.05
2023-03-29T07:50:11.858Z,4.90
2023-03-29T07:52:39.611Z,2.35
2023-03-29T07:55:08.377Z,3.28
2023-03-29T07:57:35.522Z,2.85
2023-03-29T08:00:15.162Z,5.40
2023-03-29T08:02:46.670Z,2.67
2023-03-29T08:05:16.270Z,2.75
2023-03-29T08:07:47.013Z,3.75
2023-03-29T08:10:19.116Z,2.33
2023-03-29T08:12:47.469Z,1.92
2023-03-29T08:15:15.271Z,2.83
2023-03-29T08:17:42.498Z,2.72
2023-03-29T08:20:12.927Z,3.50
2023-03-29T08:22:40.643Z,3.65
2023-03-29T08:25:08.149Z,4.63
2023-03-29T08:27:35.625Z,2.03
2023-03-29T08:30:02.433Z,4.63
2023-03-29T08:32:29.114Z,4.57
2023-03-29T08:34:55.900Z,3.88
2023-03-29T08:37:24.764Z,4.45
2023-03-29T08:39:51.867Z,3.90
2023-03-29T08:42:30.090Z,4.40
2023-03-29T08:45:05.771Z,3.20
2023-03-29T08:47:47.625Z,3.78
2023-03-29T08:50:15.180Z,2.55
2023-03-29T08:52:47.575Z,3.30
2023-03-29T08:55:45.308Z,5.53
2023-03-29T08:58:20.198Z,2.78
2023-03-29T09:01:01.601Z,4.78
2023-03-29T09:03:37.532Z,3.70
2023-03-29T09:06:07.161Z,4.47
2023-03-29T09:08:45.040Z,7.65
2023-03-29T09:11:23.610Z,3.80
2023-03-29T09:14:09.100Z,2.13
2023-03-29T09:17:15.363Z,3.78
2023-03-29T09:20:00.193Z,2.83
2023-03-29T09:25:25.655Z,3.07
2023-03-29T09:28:03.729Z,5.20
2023-03-29T09:31:10.702Z,3.03
2023-03-29T09:33:45.017Z,2.70
2023-03-29T09:36:36.283Z,1.63
2023-03-29T09:39:04.318Z,8.05
2023-03-29T09:41:36.487Z,2.38
2023-03-29T09:44:23.983Z,2.95
2023-03-29T09:47:01.407Z,4.43
2023-03-29T09:49:34.557Z,4.72
2023-03-29T09:52:08.829Z,5.40
2023-03-29T09:54:35.668Z,7.03
2023-03-29T09:57:03.262Z,2.47
2023-03-29T09:59:30.804Z,8.10
2023-03-29T10:02:09.336Z,3.80
2023-03-29T10:04:37.070Z,4.60
2023-03-29T10:07:05.918Z,4.55
2023-03-29T10:09:34.193Z,3.65
2023-03-29T10:12:05.648Z,6.47
2023-03-29T10:14:44.756Z,4.10
2023-03-29T10:17:25.326Z,3.30
2023-03-29T10:19:57.854Z,6.80
2023-03-29T10:22:27.740Z,3.63
2023-03-29T10:24:57.222Z,5.00
2023-03-29T10:27:27.530Z,5.50
2023-03-29T10:29:55.803Z,4.15
2023-03-29T10:32:24.150Z,2.70
2023-03-29T10:34:52.188Z,2.80
2023-03-29T10:37:21.205Z,3.50
2023-03-29T10:39:48.917Z,2.60
2023-03-29T10:42:19.625Z,3.95
2023-03-29T10:44:57.823Z,4.45
2023-03-29T10:47:25.974Z,3.55
2023-03-29T10:49:58.860Z,1.90
2023-03-29T10:52:26.030Z,7.75
2023-03-29T10:54:55.841Z,4.00
2023-03-29T10:57:42.933Z,3.08
2023-03-29T11:00:32.417Z,5.47
2023-03-29T11:03:14.435Z,8.50
2023-03-29T11:05:50.473Z,6.45
2023-03-29T11:08:31.744Z,6.93
2023-03-29T11:11:28.853Z,4.57
2023-03-29T11:14:14.001Z,6.28
2023-03-29T11:17:17.083Z,3.60
2023-03-29T11:19:56.738Z,5.07
2023-03-29T11:22:31.652Z,4.47
2023-03-29T11:25:29.635Z,3.78
2023-03-29T11:28:25.158Z,5.32
2023-03-29T11:31:10.157Z,3.65
2023-03-29T11:33:49.072Z,4.55
2023-03-29T11:36:51.181Z,7.28
2023-03-29T11:39:30.337Z,12.85
2023-03-29T11:42:07.845Z,6.30
2023-03-29T11:44:36.462Z,4.75
2023-03-29T11:47:11.202Z,3.67
2023-03-29T11:49:43.051Z,3.22
2023-03-29T11:52:14.944Z,5.25
2023-03-29T11:54:48.343Z,5.97
2023-03-29T11:57:20.740Z,4.50
2023-03-29T12:00:21.483Z,4.53
2023-03-29T12:02:59.637Z,9.75
2023-03-29T12:05:57.496Z,4.13
2023-03-29T12:08:30.655Z,4.38
2023-03-29T12:11:02.460Z,2.97
2023-03-29T12:13:53.789Z,2.22
2023-03-29T12:16:33.435Z,5.38
2023-03-29T12:19:07.102Z,5.25
2023-03-29T12:21:36.282Z,3.80
2023-03-29T12:24:03.265Z,3.35
2023-03-29T12:26:49.028Z,3.13
2023-03-29T12:29:35.908Z,6.25
2023-03-29T12:32:35.884Z,4.40
2023-03-29T12:35:52.904Z,3.08
2023-03-29T12:38:30.536Z,8.50
2023-03-29T12:41:03.965Z,8.10
2023-03-29T12:43:33.069Z,9.35
2023-03-29T12:46:14.739Z,4.55
2023-03-29T12:48:43.683Z,5.30
2023-03-29T12:51:20.556Z,6.07
2023-03-29T12:53:50.852Z,4.38
2023-03-29T12:56:20.824Z,11.75
2023-03-29T12:58:59.496Z,2.72
2023-03-29T13:01:34.691Z,3.70
2023-03-29T13:04:01.894Z,3.38
2023-03-29T13:06:52.239Z,3.78
2023-03-29T13:09:29.937Z,2.42
2023-03-29T13:11:58.493Z,5.72
2023-03-29T13:14:30.061Z,5.72
2023-03-29T13:17:18.289Z,4.20
2023-03-29T13:19:51.989Z,3.42
2023-03-29T13:22:52.264Z,8.70
2023-03-29T13:25:28.257Z,7.60
2023-03-29T13:28:12.185Z,5.65
2023-03-29T13:30:38.842Z,4.07
2023-03-29T13:33:12.257Z,5.47
2023-03-29T13:35:50.595Z,3.10
2023-03-29T13:38:31.797Z,4.32
2023-03-29T13:41:05.587Z,3.45
2023-03-29T13:43:49.637Z,3.47
2023-03-29T13:46:23.581Z,4.07
2023-03-29T13:49:05.406Z,2.80
2023-03-29T13:51:37.806Z,5.43
2023-03-29T13:54:13.302Z,4.32
2023-03-29T13:56:52.620Z,3.38
2023-03-29T13:59:26.668Z,2.42
2023-03-29T14:01:57.948Z,5.32
2023-03-29T14:04:38.039Z,5.60
2023-03-29T14:07:06.302Z,2.63
2023-03-29T14:09:39.159Z,3.38
2023-03-29T14:12:09.481Z,3.80
2023-03-29T14:14:38.692Z,4.20
2023-03-29T14:17:21.122Z,4.22
2023-03-29T14:19:49.013Z,3.67
2023-03-29T14:22:19.090Z,3.60
2023-03-29T14:24:53.745Z,7.05
2023-03-29T14:27:22.120Z,5.60
2023-03-29T14:29:51.297Z,5.75
2023-03-29T14:32:20.520Z,3.00
2023-03-29T14:34:50.928Z,3.80
2023-03-29T14:37:23.498Z,3.20
2023-03-29T14:39:50.981Z,3.00
2023-03-29T14:42:26.679Z,5.22
2023-03-29T14:44:58.658Z,5.47
2023-03-29T14:47:29.543Z,4.47
2023-03-29T14:50:00.656Z,5.13
2023-03-29T14:52:29.634Z,4.40
2023-03-29T14:55:00.033Z,3.28
2023-03-29T14:57:32.709Z,4.65
2023-03-29T15:00:01.839Z,5.13
2023-03-29T15:02:33.570Z,6.00
2023-03-29T15:05:05.608Z,6.05
2023-03-29T15:07:34.763Z,3.88
2023-03-29T15:10:05.126Z,3.55
2023-03-29T15:12:33.100Z,2.42
2023-03-29T15:15:00.924Z,4.50
2023-03-29T15:17:51.161Z,4.15
2023-03-29T15:20:24.591Z,5.63
2023-03-29T15:23:08.030Z,5.00
2023-03-29T15:25:37.319Z,5.18
2023-03-29T15:28:04.417Z,5.07
2023-03-29T15:30:36.480Z,4.60
2023-03-29T15:33:20.816Z,4.63
2023-03-29T15:35:51.823Z,3.05
2023-03-29T15:38:23.384Z,5.63
2023-03-29T15:40:54.565Z,6.63
2023-03-29T15:43:22.465Z,2.88
2023-03-29T15:45:49.375Z,4.10
2023-03-29T15:48:19.844Z,7.07
2023-03-29T15:50:46.762Z,8.63
2023-03-29T15:53:15.792Z,6.90
2023-03-29T15:55:45.934Z,8.45
2023-03-29T15:58:19.136Z,4.90
2023-03-29T16:00:52.222Z,4.47
2023-03-29T16:03:19.299Z,5.43
2023-03-29T16:05:46.690Z,6.15
2023-03-29T16:08:13.673Z,6.35
2023-03-29T16:10:41.898Z,7.90
2023-03-29T16:13:12.368Z,3.95
2023-03-29T16:15:41.936Z,3.83
2023-03-29T16:18:09.255Z,3.22
2023-03-29T16:20:36.302Z,5.60
2023-03-29T16:23:08.678Z,6.55
2023-03-29T16:25:38.364Z,4.40
2023-03-29T16:28:05.631Z,9.20
2023-03-29T16:30:32.930Z,4.28
2023-03-29T16:32:59.682Z,3.63
2023-03-29T16:35:29.894Z,7.28
2023-03-29T16:37:56.683Z,5.22
2023-03-29T16:40:24.075Z,7.25
2023-03-29T16:42:51.661Z,3.17
2023-03-29T16:45:19.184Z,6.53
2023-03-29T16:47:46.212Z,3.97
2023-03-29T16:50:14.872Z,6.03
2023-03-29T16:52:44.664Z,6.25
2023-03-29T16:55:13.145Z,8.65
2023-03-29T16:57:40.326Z,5.57
2023-03-29T17:00:10.901Z,6.55
2023-03-29T17:02:37.752Z,7.50
2023-03-29T17:05:06.020Z,7.47
2023-03-29T17:07:33.492Z,8.30
2023-03-29T17:10:00.775Z,10.52
2023-03-29T17:12:27.514Z,5.85
2023-03-29T17:14:54.187Z,9.95
2023-03-29T17:17:21.194Z,6.78
2023-03-29T17:19:48.025Z,9.13
2023-03-29T17:22:14.904Z,5.95
2023-03-29T17:24:41.680Z,7.97
2023-03-29T17:27:08.411Z,8.13
2023-03-29T17:29:35.234Z,6.68
2023-03-29T17:32:01.945Z,4.75
2023-03-29T17:34:29.049Z,6.13
2023-03-29T17:36:56.274Z,8.02
2023-03-29T17:39:25.118Z,5.60
2023-03-29T17:41:52.112Z,7.00
2023-03-29T17:44:19.550Z,9.38
2023-03-29T17:46:46.725Z,6.80
2023-03-29T17:49:14.746Z,6.70
2023-03-29T17:51:41.692Z,10.00
2023-03-29T17:54:08.492Z,6.35
2023-03-29T17:56:35.368Z,5.95
2023-03-29T17:59:02.133Z,7.30
2023-03-29T18:01:29.374Z,6.95
2023-03-29T18:03:56.196Z,4.90
2023-03-29T18:06:23.006Z,6.75
2023-03-29T18:08:49.740Z,7.47
2023-03-29T18:11:23.869Z,5.40
2023-03-29T18:13:54.580Z,8.27
2023-03-29T18:16:22.366Z,9.32
2023-03-29T18:18:49.228Z,18.23
2023-03-29T18:21:16.969Z,22.70
2023-03-29T18:23:48.204Z,7.75
2023-03-29T18:26:16.582Z,11.65
2023-03-29T18:28:48.748Z,19.65
2023-03-29T18:31:16.038Z,13.45
2023-03-29T18:33:43.014Z,13.60
2023-03-29T18:36:13.298Z,9.02
2023-03-29T18:38:43.308Z,12.13
2023-03-29T18:41:12.487Z,8.52
2023-03-29T18:43:40.447Z,12.43
2023-03-29T18:46:08.061Z,10.57
2023-03-29T18:48:41.965Z,11.63
2023-03-29T18:51:11.191Z,14.05
2023-03-29T18:53:39.189Z,12.20
2023-03-29T18:56:06.615Z,9.05
2023-03-29T18:58:33.412Z,8.73
2023-03-29T19:01:03.439Z,10.07
2023-03-29T19:03:34.727Z,10.85
2023-03-29T19:06:02.612Z,12.95
2023-03-29T19:08:29.758Z,15.32
2023-03-29T19:11:02.600Z,10.07
2023-03-29T19:13:29.265Z,8.90
2023-03-29T19:15:55.987Z,7.38
2023-03-29T19:18:22.919Z,10.05
2023-03-29T19:20:54.078Z,11.15
2023-03-29T19:23:22.227Z,13.27
2023-03-29T19:25:53.893Z,9.23
2023-03-29T19:28:20.779Z,6.90
2023-03-29T19:30:47.747Z,10.82
2023-03-29T19:33:14.692Z,8.68
2023-03-29T19:35:41.641Z,12.43
2023-03-29T19:38:08.594Z,7.15
2023-03-29T19:40:36.455Z,9.15
2023-03-29T19:43:04.164Z,10.98
2023-03-29T19:45:30.829Z,10.68
2023-03-29T19:48:02.578Z,9.57
2023-03-29T19:50:31.693Z,7.25
2023-03-29T19:52:58.513Z,11.85
2023-03-29T19:55:25.944Z,5.97
2023-03-29T19:57:52.682Z,8.35
2023-03-29T20:00:24.246Z,9.93
2023-03-29T20:02:52.316Z,6.75
2023-03-29T20:05:20.079Z,9.02
2023-03-29T20:07:46.769Z,10.00
2023-03-29T20:10:13.551Z,8.35
2023-03-29T20:12:40.361Z,11.27
2023-03-29T20:15:07.542Z,8.38
2023-03-29T20:17:35.657Z,8.05
2023-03-29T20:20:08.223Z,7.85
2023-03-29T20:22:35.082Z,4.15
2023-03-29T20:25:01.759Z,8.00
2023-03-29T20:27:29.549Z,7.72
2023-03-29T20:29:56.262Z,9.95
2023-03-29T20:32:23.290Z,6.63
2023-03-29T20:34:49.997Z,10.43
2023-03-29T20:37:16.734Z,11.85
2023-03-29T20:39:43.688Z,7.60
2023-03-29T20:42:11.174Z,11.55
2023-03-29T20:44:39.203Z,6.50
2023-03-29T20:47:08.101Z,7.45
2023-03-29T20:49:39.234Z,4.63
2023-03-29T20:52:18.121Z,7.13
2023-03-29T20:54:45.561Z,7.57
2023-03-29T20:57:14.640Z,8.65
2023-03-29T20:59:45.073Z,7.10
2023-03-29T21:02:18.869Z,8.95
2023-03-29T21:04:49.838Z,7.45
2023-03-29T21:07:17.134Z,17.50
2023-03-29T21:09:43.978Z,13.02
2023-03-29T21:12:10.925Z,8.43
2023-03-29T21:14:37.930Z,10.07
2023-03-29T21:17:04.756Z,7.07
2023-03-29T21:19:31.609Z,5.78
2023-03-29T21:21:58.878Z,10.55
2023-03-29T21:24:25.651Z,9.88
2023-03-29T21:26:52.279Z,14.38
2023-03-29T21:29:18.946Z,7.18
2023-03-29T21:31:45.816Z,8.85
2023-03-29T21:34:12.601Z,11.68
2023-03-29T21:36:39.923Z,5.90
2023-03-29T21:39:06.830Z,8.52
2023-03-29T21:41:33.644Z,7.72
2023-03-29T21:44:00.401Z,6.47
2023-03-29T21:46:27.187Z,8.20
2023-03-29T21:48:53.948Z,10.10
2023-03-29T21:51:20.711Z,7.72
2023-03-29T21:53:47.466Z,8.60
2023-03-29T21:56:14.389Z,9.73
2023-03-29T21:58:41.578Z,7.38
2023-03-29T22:01:10.164Z,9.60
2023-03-29T22:03:38.396Z,6.90
2023-03-29T22:06:09.355Z,6.50
2023-03-29T22:08:38.946Z,10.20
2023-03-29T22:11:11.600Z,12.07
2023-03-29T22:13:38.904Z,10.38
2023-03-29T22:16:07.140Z,9.60
2023-03-29T22:18:42.859Z,11.32
2023-03-29T22:21:14.415Z,12.98
2023-03-29T22:23:43.121Z,8.43
2023-03-29T22:26:11.223Z,8.80
2023-03-29T22:28:38.783Z,8.88
2023-03-29T22:31:08.087Z,10.30
2023-03-29T22:33:36.054Z,10.88
2023-03-29T22:36:11.703Z,8.10
2023-03-29T22:38:38.768Z,10.63
2023-03-29T22:41:06.239Z,9.52
2023-03-29T22:43:33.247Z,11.65
2023-03-29T22:46:00.148Z,13.00
2023-03-29T22:48:27.070Z,7.40
2023-03-29T22:50:53.818Z,6.68
2023-03-29T22:53:20.716Z,9.02
2023-03-29T22:55:47.418Z,8.50
2023-03-29T22:58:14.482Z,10.73
2023-03-29T23:00:41.222Z,9.15
2023-03-29T23:03:08.077Z,9.75
2023-03-29T23:05:34.781Z,9.38
2023-03-29T23:08:01.757Z,6.93
2023-03-29T23:10:30.436Z,9.30
2023-03-29T23:13:10.391Z,10.95
2023-03-29T23:15:39.052Z,9.13
2023-03-29T23:18:06.058Z,7.68
2023-03-29T23:20:32.952Z,8.82
2023-03-29T23:23:00.158Z,9.52
2023-03-29T23:25:27.275Z,7.57
2023-03-29T23:27:54.557Z,10.20
2023-03-29T23:30:21.822Z,8.65
2023-03-29T23:32:50.130Z,11.13
2023-03-29T23:35:16.992Z,13.82
2023-03-29T23:37:43.759Z,12.55
2023-03-29T23:40:14.495Z,4.97
2023-03-29T23:42:46.501Z,8.52
2023-03-29T23:45:15.899Z,12.50
2023-03-29T23:47:44.125Z,7.32
2023-03-29T23:50:13.537Z,9.75
2023-03-29T23:52:41.685Z,8.95
2023-03-29T23:55:13.099Z,8.70
2023-03-29T23:57:40.569Z,6.78
